createdAt,value
2023-04-28T00:02:31.566Z,8.94
2023-04-28T00:05:18.487Z,9.22
2023-04-28T00:08:05.259Z,9.02
2023-04-28T00:10:51.405Z,9.16
2023-04-28T00:13:38.251Z,8.99
2023-04-28T00:16:24.612Z,8.96
2023-04-28T00:19:11.201Z,8.85
2023-04-28T00:21:57.675Z,8.95
2023-04-28T00:24:43.909Z,9.06
2023-04-28T00:27:30.339Z,9.13
2023-04-28T00:30:17.138Z,9.38
2023-04-28T00:33:03.633Z,9.34
2023-04-28T00:35:50.384Z,8.96
2023-04-28T00:38:36.808Z,9.28
2023-04-28T00:41:22.956Z,9.25
2023-04-28T00:44:09.409Z,9.10
2023-04-28T00:46:56.688Z,8.93
2023-04-28T00:49:43.311Z,8.75
2023-04-28T00:52:29.878Z,8.83
2023-04-28T00:55:16.895Z,8.91
2023-04-28T00:58:03.338Z,8.75
2023-04-28T01:00:49.705Z,8.88
2023-04-28T01:03:39.840Z,9.12
2023-04-28T01:06:28.641Z,9.01
2023-04-28T01:09:17.742Z,9.25
2023-04-28T01:12:04.474Z,8.84
2023-04-28T01:15:10.757Z,8.94
2023-04-28T01:17:58.427Z,8.85
2023-04-28T01:20:45.166Z,8.90
2023-04-28T01:23:32.127Z,9.09
2023-04-28T01:26:18.541Z,9.14
2023-04-28T01:29:04.725Z,9.25
2023-04-28T01:31:51.033Z,9.30
2023-04-28T01:34:38.757Z,9.35
2023-04-28T01:37:26.427Z,9.14
2023-04-28T01:40:13.792Z,9.16
2023-04-28T01:43:00.598Z,8.85
2023-04-28T01:45:49.824Z,9.07
2023-04-28T01:48:36.207Z,9.22
2023-04-28T01:51:22.636Z,9.23
2023-04-28T01:54:09.041Z,9.16
2023-04-28T01:56:55.499Z,8.97
2023-04-28T01:59:42.604Z,9.03
2023-04-28T02:02:29.514Z,8.74
2023-04-28T02:05:16.882Z,9.24
2023-04-28T02:08:03.086Z,8.86
2023-04-28T02:10:49.799Z,9.21
2023-04-28T02:13:36.719Z,9.30
2023-04-28T02:16:23.113Z,8.91
2023-04-28T02:19:10.483Z,9.31
2023-04-28T02:21:56.644Z,9.34
2023-04-28T02:24:43.250Z,9.10
2023-04-28T02:27:29.742Z,9.26
2023-04-28T02:30:16.297Z,9.22
2023-04-28T02:33:02.831Z,9.16
2023-04-28T02:35:58.852Z,9.36
2023-04-28T02:38:45.331Z,9.23
2023-04-28T02:41:34.468Z,9.15
2023-04-28T02:44:21.399Z,9.38
2023-04-28T02:47:08.000Z,9.38
2023-04-28T02:49:54.397Z,9.55
2023-04-28T02:52:41.461Z,9.44
2023-04-28T02:55:28.004Z,9.49
2023-04-28T02:58:15.291Z,9.37
2023-04-28T03:01:02.034Z,9.53
2023-04-28T03:03:48.557Z,9.42
2023-04-28T03:06:35.303Z,9.51
2023-04-28T03:09:22.017Z,9.52
2023-04-28T03:12:08.411Z,9.14
2023-04-28T03:14:55.129Z,9.30
2023-04-28T03:17:43.147Z,9.31
2023-04-28T03:20:29.971Z,9.17
2023-04-28T03:23:16.519Z,9.29
2023-04-28T03:26:03.188Z,9.42
2023-04-28T03:28:49.549Z,9.36
2023-04-28T03:31:37.142Z,9.18
2023-04-28T03:34:23.849Z,8.93
2023-04-28T03:37:10.210Z,9.26
2023-04-28T03:39:56.514Z,9.34
2023-04-28T03:42:43.001Z,9.25
2023-04-28T03:45:32.589Z,9.14
2023-04-28T03:48:19.330Z,9.09
2023-04-28T03:51:06.003Z,9.07
2023-04-28T03:53:52.223Z,9.28
2023-04-28T03:56:39.094Z,9.28
2023-04-28T03:59:25.294Z,9.13
2023-04-28T04:02:11.721Z,8.74
2023-04-28T04:04:58.860Z,9.19
2023-04-28T04:07:45.623Z,9.29
2023-04-28T04:10:32.670Z,9.26
2023-04-28T04:13:19.271Z,9.17
2023-04-28T04:16:06.729Z,9.28
2023-04-28T04:18:53.082Z,9.16
2023-04-28T04:21:42.531Z,9.46
2023-04-28T04:24:29.154Z,9.27
2023-04-28T04:27:15.666Z,9.48
2023-04-28T04:30:02.065Z,9.23
2023-04-28T04:32:48.487Z,9.61
2023-04-28T04:35:35.219Z,9.55
2023-04-28T04:38:21.753Z,9.39
2023-04-28T04:41:08.463Z,9.34
2023-04-28T04:43:54.950Z,9.62
2023-04-28T04:46:48.364Z,9.51
2023-04-28T04:49:38.130Z,9.55
2023-04-28T04:52:25.009Z,9.39
2023-04-28T04:55:11.539Z,9.75
2023-04-28T04:58:00.291Z,9.70
2023-04-28T05:01:05.816Z,9.85
2023-04-28T05:03:52.267Z,9.78
2023-04-28T05:06:40.619Z,9.62
2023-04-28T05:09:27.314Z,9.58
2023-04-28T05:12:13.410Z,9.56
2023-04-28T05:14:59.858Z,9.51
2023-04-28T05:17:46.336Z,9.70
2023-04-28T05:20:32.612Z,9.55
2023-04-28T05:23:19.105Z,9.82
2023-04-28T05:26:06.425Z,9.89
2023-04-28T05:28:52.940Z,9.82
2023-04-28T05:31:39.360Z,9.76
2023-04-28T05:34:25.961Z,9.87
2023-04-28T05:37:12.325Z,9.92
2023-04-28T05:40:00.606Z,9.95
2023-04-28T05:42:47.212Z,9.44
2023-04-28T05:45:33.698Z,9.82
2023-04-28T05:48:20.473Z,10.03
2023-04-28T05:51:07.055Z,10.19
2023-04-28T05:53:53.515Z,10.29
2023-04-28T05:56:40.546Z,10.34
2023-04-28T05:59:30.578Z,10.17
2023-04-28T06:02:17.481Z,10.32
2023-04-28T06:05:08.061Z,10.45
2023-04-28T06:07:56.153Z,10.49
2023-04-28T06:10:42.885Z,10.63
2023-04-28T06:13:29.541Z,10.76
2023-04-28T06:16:17.081Z,10.72
2023-04-28T06:19:04.012Z,10.89
2023-04-28T06:21:51.582Z,11.09
2023-04-28T06:24:37.908Z,11.20
2023-04-28T06:27:28.768Z,11.40
2023-04-28T06:30:23.225Z,11.49
2023-04-28T06:33:09.660Z,11.41
2023-04-28T06:35:56.672Z,11.34
2023-04-28T06:38:46.163Z,11.52
2023-04-28T06:41:32.627Z,11.47
2023-04-28T06:44:20.937Z,11.44
2023-04-28T06:47:08.614Z,11.46
2023-04-28T06:49:58.124Z,11.48
2023-04-28T06:52:44.615Z,11.46
2023-04-28T06:55:31.613Z,11.41
2023-04-28T06:58:18.802Z,11.60
2023-04-28T07:01:05.800Z,11.56
2023-04-28T07:03:52.443Z,11.66
2023-04-28T07:06:39.132Z,11.69
2023-04-28T07:09:25.913Z,11.69
2023-04-28T07:12:12.538Z,11.68
2023-04-28T07:14:59.090Z,11.61
2023-04-28T07:17:45.779Z,11.55
2023-04-28T07:20:32.321Z,11.59
2023-04-28T07:23:18.622Z,11.51
2023-04-28T07:26:05.036Z,11.31
2023-04-28T07:28:51.956Z,11.39
2023-04-28T07:31:38.322Z,11.32
2023-04-28T07:34:24.862Z,11.10
2023-04-28T07:37:12.044Z,11.30
2023-04-28T07:39:58.778Z,11.09
2023-04-28T07:42:45.880Z,10.98
2023-04-28T07:45:32.487Z,10.89
2023-04-28T07:48:19.298Z,10.81
2023-04-28T07:51:06.063Z,10.42
2023-04-28T07:53:52.774Z,10.62
2023-04-28T07:56:39.222Z,10.58
2023-04-28T07:59:25.598Z,10.43
2023-04-28T08:02:13.555Z,10.40
2023-04-28T08:05:00.136Z,10.62
2023-04-28T08:07:46.928Z,10.70
2023-04-28T08:10:33.230Z,10.62
2023-04-28T08:13:19.715Z,10.93
2023-04-28T08:16:06.889Z,11.10
2023-04-28T08:18:53.339Z,11.08
2023-04-28T08:21:40.047Z,11.19
2023-04-28T08:24:30.178Z,11.28
2023-04-28T08:27:16.489Z,11.18
2023-04-28T08:30:02.970Z,11.05
2023-04-28T08:32:51.690Z,11.12
2023-04-28T08:35:38.366Z,11.06
2023-04-28T08:38:25.489Z,11.23
2023-04-28T08:41:15.150Z,11.35
2023-04-28T08:44:01.906Z,11.57
2023-04-28T08:46:50.046Z,11.75
2023-04-28T08:49:37.172Z,11.99
2023-04-28T08:52:25.780Z,12.03
2023-04-28T08:55:13.563Z,12.11
2023-04-28T08:58:02.716Z,12.28
2023-04-28T09:00:49.397Z,12.24
2023-04-28T09:03:35.678Z,12.30
2023-04-28T09:06:23.019Z,12.28
2023-04-28T09:09:22.643Z,12.29
2023-04-28T09:12:09.245Z,11.61
2023-04-28T09:14:58.661Z,11.34
2023-04-28T09:17:52.472Z,11.56
2023-04-28T09:20:38.873Z,11.71
2023-04-28T09:23:25.560Z,11.95
2023-04-28T09:26:12.072Z,12.24
2023-04-28T09:29:13.088Z,12.36
2023-04-28T09:32:17.357Z,12.48
2023-04-28T09:35:04.996Z,12.62
2023-04-28T09:37:58.669Z,12.74
2023-04-28T09:41:01.296Z,13.09
2023-04-28T09:43:47.917Z,13.26
2023-04-28T09:46:34.168Z,13.52
2023-04-28T09:49:20.773Z,13.70
2023-04-28T09:52:13.982Z,13.69
2023-04-28T09:55:05.592Z,13.88
2023-04-28T09:57:54.792Z,14.20
2023-04-28T10:00:41.611Z,14.76
2023-04-28T10:03:30.620Z,14.89
2023-04-28T10:06:17.391Z,14.69
2023-04-28T10:09:03.773Z,14.64
2023-04-28T10:11:50.195Z,14.78
2023-04-28T10:14:37.621Z,15.29
2023-04-28T10:17:29.513Z,15.26
2023-04-28T10:20:16.662Z,15.53
2023-04-28T10:23:31.350Z,15.76
2023-04-28T10:26:20.138Z,15.95
2023-04-28T10:29:08.259Z,16.23
2023-04-28T10:32:25.931Z,16.37
2023-04-28T10:35:21.386Z,16.39
2023-04-28T10:38:17.855Z,16.34
2023-04-28T10:41:04.563Z,16.50
2023-04-28T10:43:50.896Z,16.19
2023-04-28T10:47:06.891Z,16.60
2023-04-28T10:49:57.609Z,16.74
2023-04-28T10:52:46.946Z,17.04
2023-04-28T10:55:39.994Z,17.15
2023-04-28T10:58:26.306Z,17.21
2023-04-28T11:01:22.091Z,17.35
2023-04-28T11:04:14.086Z,17.39
2023-04-28T11:07:13.371Z,17.31
2023-04-28T11:09:59.522Z,17.36
2023-04-28T11:13:23.288Z,17.46
2023-04-28T11:16:09.962Z,17.35
2023-04-28T11:19:04.793Z,17.12
2023-04-28T11:21:53.629Z,16.97
2023-04-28T11:24:40.033Z,16.60
2023-04-28T11:27:28.016Z,16.52
2023-04-28T11:30:22.704Z,16.70
2023-04-28T11:33:09.864Z,16.88
2023-04-28T11:35:56.537Z,17.07
2023-04-28T11:38:44.408Z,17.42
2023-04-28T11:41:32.250Z,17.54
2023-04-28T11:44:21.535Z,17.46
2023-04-28T11:47:08.015Z,17.26
2023-04-28T11:49:54.607Z,17.28
2023-04-28T11:52:53.432Z,17.15
2023-04-28T11:55:40.552Z,17.39
2023-04-28T11:58:27.872Z,17.38
2023-04-28T12:01:15.728Z,17.08
2023-04-28T12:04:02.277Z,16.71
2023-04-28T12:07:18.572Z,16.50
2023-04-28T12:10:17.224Z,15.92
2023-04-28T12:13:31.193Z,15.49
2023-04-28T12:16:38.962Z,15.03
2023-04-28T12:19:25.601Z,14.95
2023-04-28T12:22:12.400Z,14.93
2023-04-28T12:25:07.952Z,14.85
2023-04-28T12:28:04.772Z,14.93
2023-04-28T12:31:04.048Z,15.11
2023-04-28T12:33:50.685Z,15.17
2023-04-28T12:36:37.196Z,15.37
2023-04-28T12:39:24.665Z,15.47
2023-04-28T12:42:11.759Z,15.44
2023-04-28T12:44:58.656Z,15.50
2023-04-28T12:47:45.328Z,15.66
2023-04-28T12:50:33.120Z,15.82
2023-04-28T12:53:19.549Z,15.96
2023-04-28T12:56:06.289Z,16.17
2023-04-28T12:58:53.073Z,16.61
2023-04-28T13:01:39.761Z,16.74
2023-04-28T13:04:26.856Z,16.83
2023-04-28T13:07:15.052Z,17.33
2023-04-28T13:10:01.442Z,17.57
2023-04-28T13:12:48.191Z,17.73
2023-04-28T13:15:35.813Z,17.47
2023-04-28T13:18:24.347Z,17.28
2023-04-28T13:21:11.687Z,17.68
2023-04-28T13:23:58.641Z,17.83
2023-04-28T13:26:45.399Z,17.72
2023-04-28T13:29:31.903Z,17.82
2023-04-28T13:32:18.502Z,17.75
2023-04-28T13:35:05.625Z,17.47
2023-04-28T13:37:55.971Z,17.61
2023-04-28T13:40:43.035Z,17.42
2023-04-28T13:43:31.124Z,17.48
2023-04-28T13:46:17.928Z,17.56
2023-04-28T13:49:04.857Z,17.65
2023-04-28T13:51:51.459Z,17.43
2023-04-28T13:54:37.889Z,17.72
2023-04-28T13:57:24.373Z,17.84
2023-04-28T14:00:11.537Z,18.08
2023-04-28T14:02:58.558Z,18.33
2023-04-28T14:05:49.332Z,18.33
2023-04-28T14:08:36.753Z,18.32
2023-04-28T14:11:23.204Z,18.05
2023-04-28T14:14:09.780Z,17.64
2023-04-28T14:16:56.273Z,17.56
2023-04-28T14:19:44.396Z,17.45
2023-04-28T14:22:30.945Z,17.41
2023-04-28T14:25:18.757Z,17.29
2023-04-28T14:28:05.303Z,17.33
2023-04-28T14:30:53.898Z,17.69
2023-04-28T14:33:40.829Z,17.70
2023-04-28T14:36:27.517Z,17.76
2023-04-28T14:39:14.131Z,17.68
2023-04-28T14:42:00.681Z,17.78
2023-04-28T14:44:47.819Z,17.78
2023-04-28T14:47:35.886Z,17.84
2023-04-28T14:50:22.678Z,17.92
2023-04-28T14:53:09.164Z,17.66
2023-04-28T14:56:04.521Z,17.61
2023-04-28T14:58:57.310Z,17.45
2023-04-28T15:01:44.205Z,17.21
2023-04-28T15:04:31.100Z,17.30
2023-04-28T15:07:18.222Z,17.27
2023-04-28T15:10:04.964Z,17.26
2023-04-28T15:12:51.506Z,17.49
2023-04-28T15:15:37.851Z,17.67
2023-04-28T15:18:24.586Z,18.10
2023-04-28T15:21:12.062Z,18.27
2023-04-28T15:24:01.251Z,18.38
2023-04-28T15:26:48.090Z,18.29
2023-04-28T15:29:34.723Z,18.32
2023-04-28T15:32:21.561Z,18.19
2023-04-28T15:35:08.160Z,18.14
2023-04-28T15:37:55.831Z,18.02
2023-04-28T15:40:43.661Z,17.94
2023-04-28T15:43:30.030Z,17.79
2023-04-28T15:46:17.899Z,17.63
2023-04-28T15:49:04.634Z,17.38
2023-04-28T15:51:51.197Z,17.37
2023-04-28T15:54:39.540Z,17.50
2023-04-28T15:57:26.133Z,17.52
2023-04-28T16:00:14.896Z,17.13
2023-04-28T16:03:01.708Z,17.08
2023-04-28T16:05:48.210Z,16.92
2023-04-28T16:08:35.842Z,16.75
2023-04-28T16:11:22.630Z,16.57
2023-04-28T16:14:08.824Z,16.24
2023-04-28T16:16:55.795Z,15.94
2023-04-28T16:19:42.515Z,15.73
2023-04-28T16:22:29.753Z,15.50
2023-04-28T16:25:16.360Z,15.39
2023-04-28T16:28:03.097Z,15.21
2023-04-28T16:30:49.690Z,15.32
2023-04-28T16:33:36.218Z,15.41
2023-04-28T16:36:22.861Z,15.75
2023-04-28T16:39:10.034Z,15.90
2023-04-28T16:41:57.434Z,16.19
2023-04-28T16:44:43.798Z,16.42
2023-04-28T16:47:31.272Z,16.48
2023-04-28T16:50:18.167Z,16.39
2023-04-28T16:53:04.550Z,16.37
2023-04-28T16:55:50.976Z,16.38
2023-04-28T16:58:37.298Z,16.38
2023-04-28T17:01:24.329Z,16.35
2023-04-28T17:04:11.726Z,16.58
2023-04-28T17:06:58.797Z,16.67
2023-04-28T17:09:45.085Z,16.45
2023-04-28T17:12:31.802Z,16.46
2023-04-28T17:15:18.548Z,16.35
2023-04-28T17:18:05.087Z,16.09
2023-04-28T17:20:52.269Z,16.32
2023-04-28T17:23:39.293Z,16.29
2023-04-28T17:26:27.738Z,16.44
2023-04-28T17:29:14.172Z,16.36
2023-04-28T17:32:00.445Z,16.26
2023-04-28T17:34:47.411Z,16.17
2023-04-28T17:37:35.036Z,16.22
2023-04-28T17:40:25.633Z,16.18
2023-04-28T17:43:12.070Z,16.07
2023-04-28T17:45:58.486Z,15.86
2023-04-28T17:48:45.405Z,15.70
2023-04-28T17:51:32.482Z,15.70
2023-04-28T17:54:19.184Z,15.52
2023-04-28T17:57:05.904Z,15.35
2023-04-28T18:04:26.310Z,15.05
2023-04-28T18:07:12.860Z,14.81
2023-04-28T18:09:59.088Z,14.75
2023-04-28T18:12:46.295Z,14.62
2023-04-28T18:15:32.567Z,14.42
2023-04-28T18:18:19.669Z,14.22
2023-04-28T18:21:06.288Z,13.99
2023-04-28T18:23:52.685Z,13.86
2023-04-28T18:26:38.893Z,13.69
2023-04-28T18:29:25.728Z,13.52
2023-04-28T18:32:14.522Z,13.36
2023-04-28T18:35:01.486Z,13.34
2023-04-28T18:37:48.351Z,13.10
2023-04-28T18:40:38.576Z,13.01
2023-04-28T18:43:25.907Z,12.79
2023-04-28T18:46:12.201Z,12.78
2023-04-28T18:48:58.788Z,12.99
2023-04-28T18:51:45.402Z,12.95
2023-04-28T18:54:31.709Z,12.70
2023-04-28T18:57:19.191Z,12.66
2023-04-28T19:00:06.284Z,12.45
2023-04-28T19:02:52.784Z,12.44
2023-04-28T19:05:43.179Z,12.37
2023-04-28T19:08:29.822Z,12.31
2023-04-28T19:11:16.416Z,12.18
2023-04-28T19:14:02.999Z,12.41
2023-04-28T19:16:50.048Z,11.95
2023-04-28T19:19:36.388Z,12.23
2023-04-28T19:22:36.750Z,12.21
2023-04-28T19:25:23.382Z,12.01
2023-04-28T19:28:11.589Z,11.96
2023-04-28T19:30:58.451Z,11.89
2023-04-28T19:33:45.164Z,11.78
2023-04-28T19:36:32.787Z,11.71
2023-04-28T19:39:19.148Z,11.74
2023-04-28T19:42:05.751Z,11.64
2023-04-28T19:44:57.018Z,11.61
2023-04-28T19:47:43.693Z,11.24
2023-04-28T19:50:31.070Z,11.47
2023-04-28T19:53:19.208Z,11.53
2023-04-28T19:56:07.584Z,11.48
2023-04-28T19:58:54.477Z,11.47
2023-04-28T20:01:43.379Z,11.41
2023-04-28T20:04:30.710Z,11.45
2023-04-28T20:07:17.487Z,11.38
2023-04-28T20:10:04.500Z,11.30
2023-04-28T20:12:51.191Z,11.22
2023-04-28T20:15:37.789Z,11.23
2023-04-28T20:18:24.153Z,11.26
2023-04-28T20:21:10.652Z,11.30
2023-04-28T20:23:57.100Z,11.26
2023-04-28T20:26:43.486Z,11.40
2023-04-28T20:29:34.349Z,11.45
2023-04-28T20:32:21.106Z,11.45
2023-04-28T20:35:07.951Z,11.52
2023-04-28T20:37:54.382Z,11.47
2023-04-28T20:40:41.058Z,11.46
2023-04-28T20:43:28.011Z,11.46
2023-04-28T20:46:15.811Z,11.05
2023-04-28T20:49:04.170Z,11.43
2023-04-28T20:51:50.589Z,11.26
2023-04-28T20:54:36.844Z,11.35
2023-04-28T20:57:23.058Z,11.35
2023-04-28T21:00:11.321Z,11.38
2023-04-28T21:02:57.795Z,11.34
2023-04-28T21:05:46.380Z,11.28
2023-04-28T21:08:33.527Z,11.33
2023-04-28T21:11:19.774Z,11.29
2023-04-28T21:14:05.961Z,11.29
2023-04-28T21:16:52.271Z,11.45
2023-04-28T21:19:38.944Z,11.40
2023-04-28T21:22:26.095Z,11.42
2023-04-28T21:25:12.883Z,11.27
2023-04-28T21:28:01.506Z,11.19
2023-04-28T21:30:52.167Z,11.06
2023-04-28T21:33:38.793Z,11.02
2023-04-28T21:36:25.098Z,10.73
2023-04-28T21:39:11.574Z,10.76
2023-04-28T21:41:57.773Z,10.68
2023-04-28T21:44:43.976Z,10.62
2023-04-28T21:47:30.553Z,10.54
2023-04-28T21:50:17.316Z,10.42
2023-04-28T21:53:04.012Z,10.56
2023-04-28T21:55:50.777Z,10.35
2023-04-28T21:58:37.338Z,10.40
2023-04-28T22:01:23.626Z,10.37
2023-04-28T22:04:10.904Z,10.43
2023-04-28T22:06:57.594Z,10.18
2023-04-28T22:09:44.248Z,10.17
2023-04-28T22:12:30.851Z,10.05
2023-04-28T22:15:17.577Z,10.07
2023-04-28T22:18:04.160Z,9.98
2023-04-28T22:20:50.912Z,9.91
2023-04-28T22:23:37.422Z,9.88
2023-04-28T22:26:24.336Z,9.99
2023-04-28T22:29:11.172Z,10.08
2023-04-28T22:31:58.686Z,10.17
2023-04-28T22:34:44.999Z,10.06
2023-04-28T22:37:31.674Z,10.25
2023-04-28T22:40:18.446Z,10.25
2023-04-28T22:43:04.807Z,10.12
2023-04-28T22:45:52.513Z,10.11
2023-04-28T22:48:38.814Z,10.03
2023-04-28T22:51:25.478Z,10.09
2023-04-28T22:54:11.800Z,10.11
2023-04-28T22:56:59.310Z,10.14
2023-04-28T22:59:45.607Z,10.16
2023-04-28T23:02:32.778Z,10.38
2023-04-28T23:05:19.637Z,10.37
2023-04-28T23:08:06.226Z,10.48
2023-04-28T23:10:55.650Z,10.33
2023-04-28T23:13:41.922Z,10.39
2023-04-28T23:16:28.440Z,10.49
2023-04-28T23:19:15.212Z,10.39
2023-04-28T23:22:01.908Z,10.38
2023-04-28T23:24:48.244Z,10.39
2023-04-28T23:27:35.018Z,10.36
2023-04-28T23:30:21.637Z,10.42
2023-04-28T23:33:08.065Z,10.80
2023-04-28T23:35:54.757Z,10.87
2023-04-28T23:38:41.742Z,11.04
2023-04-28T23:41:28.545Z,11.24
2023-04-28T23:44:15.213Z,11.39
2023-04-28T23:47:01.700Z,11.31
2023-04-28T23:49:48.557Z,11.30
2023-04-28T23:52:36.553Z,11.32
2023-04-28T23:55:22.922Z,11.47
2023-04-28T23:58:09.520Z,11.46
